createdAt,value
2023-05-21T00:00:12.039Z,24.23
2023-05-21T00:02:39.647Z,24.85
2023-05-21T00:05:11.647Z,25.20
2023-05-21T00:07:41.252Z,24.83
2023-05-21T00:10:08.685Z,25.05
2023-05-21T00:12:36.005Z,24.42
2023-05-21T00:15:03.268Z,23.58
2023-05-21T00:17:30.457Z,26.75
2023-05-21T00:19:57.640Z,25.40
2023-05-21T00:22:24.908Z,25.45
2023-05-21T00:24:52.060Z,24.17
2023-05-21T00:27:19.215Z,23.98
2023-05-21T00:29:46.455Z,23.17
2023-05-21T00:32:13.655Z,23.00
2023-05-21T00:34:41.451Z,22.90
2023-05-21T00:37:10.110Z,25.08
2023-05-21T00:39:37.331Z,23.15
2023-05-21T00:42:04.578Z,23.55
2023-05-21T00:44:34.335Z,23.80
2023-05-21T00:47:02.203Z,23.63
2023-05-21T00:49:29.699Z,24.60
2023-05-21T00:51:56.915Z,24.83
2023-05-21T00:54:24.868Z,24.63
2023-05-21T00:56:52.003Z,25.65
2023-05-21T00:59:19.284Z,26.58
2023-05-21T01:01:46.610Z,24.13
2023-05-21T01:04:13.843Z,23.50
2023-05-21T01:06:42.634Z,24.33
2023-05-21T01:09:09.946Z,24.00
2023-05-21T01:11:41.160Z,22.95
2023-05-21T01:14:09.465Z,23.55
2023-05-21T01:16:40.915Z,23.70
2023-05-21T01:19:10.349Z,24.98
2023-05-21T01:21:37.988Z,22.05
2023-05-21T01:24:05.639Z,24.23
2023-05-21T01:26:33.956Z,26.02
2023-05-21T01:29:01.430Z,24.83
2023-05-21T01:31:31.673Z,27.92
2023-05-21T01:33:58.878Z,23.92
2023-05-21T01:36:26.834Z,24.63
2023-05-21T01:39:12.846Z,24.20
2023-05-21T01:41:41.304Z,25.58
2023-05-21T01:44:08.441Z,27.05
2023-05-21T01:46:36.766Z,25.20
2023-05-21T01:49:03.998Z,25.52
2023-05-21T01:51:31.122Z,24.42
2023-05-21T01:53:58.338Z,24.17
2023-05-21T01:56:25.849Z,26.50
2023-05-21T01:58:53.234Z,23.83
2023-05-21T02:01:20.752Z,22.15
2023-05-21T02:03:48.067Z,21.85
2023-05-21T02:06:15.295Z,23.92
2023-05-21T02:08:42.465Z,26.23
2023-05-21T02:11:09.638Z,23.38
2023-05-21T02:13:42.064Z,27.42
2023-05-21T02:16:14.889Z,24.58
2023-05-21T02:18:46.432Z,23.40
2023-05-21T02:21:13.726Z,24.75
2023-05-21T02:23:41.764Z,26.20
2023-05-21T02:26:08.943Z,25.83
2023-05-21T02:28:36.385Z,24.52
2023-05-21T02:31:04.059Z,25.50
2023-05-21T02:33:31.284Z,25.50
2023-05-21T02:35:58.520Z,26.30
2023-05-21T02:38:26.047Z,23.63
2023-05-21T02:40:53.401Z,23.33
2023-05-21T02:43:20.830Z,22.92
2023-05-21T02:45:48.131Z,23.67
2023-05-21T02:48:15.382Z,22.75
2023-05-21T02:50:42.604Z,33.95
2023-05-21T02:53:09.781Z,31.60
2023-05-21T02:55:37.102Z,22.27
2023-05-21T02:58:04.518Z,23.77
2023-05-21T03:00:31.665Z,21.50
2023-05-21T03:02:58.884Z,22.17
2023-05-21T03:05:26.125Z,23.45
2023-05-21T03:07:53.426Z,22.02
2023-05-21T03:10:20.585Z,27.90
2023-05-21T03:12:47.718Z,26.25
2023-05-21T03:15:15.037Z,25.90
2023-05-21T03:17:42.402Z,23.15
2023-05-21T03:20:16.098Z,23.10
2023-05-21T03:22:44.484Z,25.20
2023-05-21T03:25:12.266Z,24.95
2023-05-21T03:27:39.738Z,23.45
2023-05-21T03:30:07.151Z,25.40
2023-05-21T03:32:37.782Z,24.25
2023-05-21T03:35:05.407Z,26.98
2023-05-21T03:37:32.579Z,25.27
2023-05-21T03:39:59.706Z,26.40
2023-05-21T03:42:26.867Z,23.55
2023-05-21T03:44:53.984Z,23.95
2023-05-21T03:47:39.981Z,23.13
2023-05-21T03:50:07.559Z,24.90
2023-05-21T03:52:34.745Z,24.50
2023-05-21T03:55:01.928Z,21.92
2023-05-21T03:57:29.093Z,21.42
2023-05-21T03:59:58.869Z,22.83
2023-05-21T04:02:29.274Z,31.20
2023-05-21T04:04:56.521Z,34.92
2023-05-21T04:07:23.915Z,26.40
2023-05-21T04:09:51.159Z,22.30
2023-05-21T04:12:20.045Z,24.48
2023-05-21T04:14:47.817Z,25.23
2023-05-21T04:17:14.988Z,25.80
2023-05-21T04:19:42.176Z,23.27
2023-05-21T04:22:11.101Z,25.17
2023-05-21T04:24:38.645Z,24.08
2023-05-21T04:27:06.938Z,23.15
2023-05-21T04:29:34.110Z,23.25
2023-05-21T04:32:01.310Z,22.02
2023-05-21T04:34:29.687Z,23.85
2023-05-21T04:36:56.943Z,21.92
2023-05-21T04:39:24.268Z,21.20
2023-05-21T04:41:54.580Z,21.80
2023-05-21T04:44:21.761Z,21.48
2023-05-21T04:46:49.089Z,19.48
2023-05-21T04:49:16.276Z,20.33
2023-05-21T04:51:43.449Z,20.17
2023-05-21T04:54:10.830Z,19.70
2023-05-21T04:56:37.964Z,20.23
2023-05-21T04:59:06.260Z,22.55
2023-05-21T05:01:35.087Z,19.27
2023-05-21T05:04:02.338Z,20.20
2023-05-21T05:06:29.548Z,19.55
2023-05-21T05:08:56.775Z,19.95
2023-05-21T05:11:23.918Z,19.00
2023-05-21T05:13:51.028Z,19.27
2023-05-21T05:16:24.925Z,19.77
2023-05-21T05:18:53.011Z,19.98
2023-05-21T05:21:21.263Z,20.50
2023-05-21T05:23:48.460Z,22.60
2023-05-21T05:26:15.660Z,17.63
2023-05-21T05:28:42.815Z,17.48
2023-05-21T05:31:10.142Z,18.13
2023-05-21T05:33:37.350Z,16.48
2023-05-21T05:36:04.580Z,16.38
2023-05-21T05:38:31.754Z,14.65
2023-05-21T05:40:58.904Z,15.57
2023-05-21T05:43:26.597Z,14.73
2023-05-21T05:45:53.965Z,17.02
2023-05-21T05:48:21.141Z,15.23
2023-05-21T05:50:48.530Z,17.58
2023-05-21T05:53:16.006Z,17.35
2023-05-21T05:55:43.169Z,18.35
2023-05-21T05:58:10.463Z,16.17
2023-05-21T06:00:38.215Z,18.50
2023-05-21T06:03:05.833Z,16.25
2023-05-21T06:05:33.045Z,18.58
2023-05-21T06:08:00.216Z,14.43
2023-05-21T06:10:27.340Z,14.38
2023-05-21T06:12:54.475Z,15.27
2023-05-21T06:15:21.827Z,14.30
2023-05-21T06:17:48.979Z,13.65
2023-05-21T06:20:16.836Z,13.70
2023-05-21T06:22:44.059Z,14.77
2023-05-21T06:25:11.258Z,14.05
2023-05-21T06:27:38.702Z,16.48
2023-05-21T06:30:06.197Z,12.25
2023-05-21T06:32:33.430Z,12.98
2023-05-21T06:35:00.636Z,12.70
2023-05-21T06:37:27.782Z,12.05
2023-05-21T06:39:54.920Z,12.00
2023-05-21T06:42:22.084Z,12.55
2023-05-21T06:44:49.346Z,10.50
2023-05-21T06:47:16.486Z,11.70
2023-05-21T06:49:43.668Z,10.63
2023-05-21T06:52:11.288Z,14.15
2023-05-21T06:54:38.459Z,10.18
2023-05-21T06:57:06.024Z,11.32
2023-05-21T06:59:33.223Z,10.55
2023-05-21T07:02:02.376Z,10.15
2023-05-21T07:04:30.968Z,10.45
2023-05-21T07:06:58.294Z,9.63
2023-05-21T07:09:25.734Z,9.45
2023-05-21T07:11:53.362Z,9.73
2023-05-21T07:14:20.655Z,9.05
2023-05-21T07:16:47.810Z,11.02
2023-05-21T07:19:15.821Z,13.65
2023-05-21T07:21:43.073Z,14.18
2023-05-21T07:24:10.209Z,8.70
2023-05-21T07:26:37.341Z,8.57
2023-05-21T07:29:04.524Z,9.63
2023-05-21T07:31:31.745Z,14.73
2023-05-21T07:33:58.993Z,13.77
2023-05-21T07:36:26.486Z,9.63
2023-05-21T07:38:53.902Z,7.57
2023-05-21T07:41:22.011Z,7.50
2023-05-21T07:43:49.259Z,7.20
2023-05-21T07:46:16.504Z,18.17
2023-05-21T07:48:44.116Z,7.82
2023-05-21T07:51:12.153Z,7.32
2023-05-21T07:53:39.308Z,7.60
2023-05-21T07:56:06.701Z,7.10
2023-05-21T07:58:35.261Z,9.95
2023-05-21T08:01:02.843Z,7.25
2023-05-21T08:03:31.703Z,7.40
2023-05-21T08:05:58.969Z,9.98
2023-05-21T08:08:26.512Z,7.28
2023-05-21T08:10:53.654Z,9.45
2023-05-21T08:13:20.887Z,7.45
2023-05-21T08:15:50.619Z,7.82
2023-05-21T08:18:19.306Z,8.20
2023-05-21T08:20:46.497Z,8.52
2023-05-21T08:23:13.673Z,11.35
2023-05-21T08:25:40.841Z,8.52
2023-05-21T08:28:08.026Z,8.90
2023-05-21T08:30:35.220Z,8.82
2023-05-21T08:33:02.539Z,9.15
2023-05-21T08:35:29.787Z,8.88
2023-05-21T08:37:56.958Z,9.20
2023-05-21T08:40:24.098Z,9.85
2023-05-21T08:42:51.281Z,21.00
2023-05-21T08:45:21.158Z,9.27
2023-05-21T08:47:48.319Z,17.50
2023-05-21T08:50:16.329Z,8.25
2023-05-21T08:52:43.477Z,9.23
2023-05-21T08:55:10.960Z,9.73
2023-05-21T08:57:38.172Z,13.27
2023-05-21T09:00:07.201Z,9.00
2023-05-21T09:02:34.637Z,13.07
2023-05-21T09:05:03.386Z,7.53
2023-05-21T09:07:31.733Z,10.48
2023-05-21T09:09:59.565Z,9.02
2023-05-21T09:12:26.825Z,8.70
2023-05-21T09:14:54.051Z,8.65
2023-05-21T09:17:21.265Z,9.95
2023-05-21T09:20:11.171Z,9.65
2023-05-21T09:22:41.048Z,11.63
2023-05-21T09:25:09.067Z,7.63
2023-05-21T09:27:36.339Z,6.82
2023-05-21T09:30:04.388Z,10.80
2023-05-21T09:32:31.613Z,6.85
2023-05-21T09:34:58.885Z,7.38
2023-05-21T09:37:28.106Z,6.20
2023-05-21T09:39:55.303Z,6.93
2023-05-21T09:42:22.660Z,6.22
2023-05-21T09:44:49.823Z,7.60
2023-05-21T09:47:20.377Z,9.25
2023-05-21T09:49:47.725Z,6.22
2023-05-21T09:52:14.876Z,8.45
2023-05-21T09:54:42.045Z,7.65
2023-05-21T09:57:09.257Z,7.95
2023-05-21T09:59:37.226Z,8.10
2023-05-21T10:02:04.447Z,8.27
2023-05-21T10:04:31.790Z,6.45
2023-05-21T10:06:59.038Z,7.13
2023-05-21T10:09:26.177Z,7.63
2023-05-21T10:11:53.452Z,7.35
2023-05-21T10:14:22.458Z,7.68
2023-05-21T10:16:49.908Z,6.72
2023-05-21T10:19:17.321Z,7.25
2023-05-21T10:21:44.529Z,7.43
2023-05-21T10:24:11.756Z,8.15
2023-05-21T10:26:39.045Z,5.35
2023-05-21T10:29:06.177Z,7.75
2023-05-21T10:31:33.488Z,8.55
2023-05-21T10:34:00.811Z,6.72
2023-05-21T10:36:27.969Z,5.93
2023-05-21T10:38:55.262Z,5.07
2023-05-21T10:41:22.599Z,6.82
2023-05-21T10:44:08.511Z,7.13
2023-05-21T10:46:41.882Z,5.03
2023-05-21T10:49:16.600Z,5.90
2023-05-21T10:52:00.686Z,6.95
2023-05-21T10:54:46.384Z,7.45
2023-05-21T10:57:20.477Z,4.78
2023-05-21T10:59:47.705Z,5.50
2023-05-21T11:02:17.670Z,6.78
2023-05-21T11:04:51.879Z,5.70
2023-05-21T11:07:24.594Z,6.65
2023-05-21T11:09:51.823Z,4.10
2023-05-21T11:12:19.846Z,5.80
2023-05-21T11:14:58.993Z,4.25
2023-05-21T11:17:43.187Z,5.43
2023-05-21T11:20:16.838Z,3.97
2023-05-21T11:22:43.978Z,4.57
2023-05-21T11:25:12.538Z,6.32
2023-05-21T11:27:40.907Z,3.75
2023-05-21T11:30:08.787Z,4.32
2023-05-21T11:32:40.035Z,5.43
2023-05-21T11:35:07.864Z,3.78
2023-05-21T11:37:35.215Z,4.55
2023-05-21T11:40:37.251Z,5.60
2023-05-21T11:43:04.535Z,4.13
2023-05-21T11:45:33.109Z,3.88
2023-05-21T11:48:00.396Z,4.20
2023-05-21T11:50:30.561Z,6.68
2023-05-21T11:52:59.803Z,5.30
2023-05-21T11:55:27.115Z,3.78
2023-05-21T11:57:55.230Z,5.43
2023-05-21T12:00:23.115Z,6.05
2023-05-21T12:02:53.990Z,9.02
2023-05-21T12:05:21.821Z,5.88
2023-05-21T12:07:50.281Z,8.02
2023-05-21T12:10:17.695Z,3.88
2023-05-21T12:12:54.984Z,3.15
2023-05-21T12:15:24.573Z,7.70
2023-05-21T12:17:53.213Z,2.80
2023-05-21T12:20:20.916Z,3.13
2023-05-21T12:22:49.607Z,5.47
2023-05-21T12:25:19.932Z,5.03
2023-05-21T12:27:47.414Z,3.45
2023-05-21T12:30:14.654Z,5.45
2023-05-21T12:32:45.247Z,3.50
2023-05-21T12:35:22.025Z,3.20
2023-05-21T12:37:50.766Z,4.25
2023-05-21T12:40:18.283Z,5.43
2023-05-21T12:42:45.549Z,9.93
2023-05-21T12:45:13.012Z,3.08
2023-05-21T12:47:40.203Z,3.60
2023-05-21T12:50:14.131Z,6.45
2023-05-21T12:52:44.208Z,5.88
2023-05-21T12:55:12.774Z,3.63
2023-05-21T12:57:40.022Z,6.32
2023-05-21T13:00:07.477Z,6.32
2023-05-21T13:02:35.271Z,5.13
2023-05-21T13:05:03.211Z,5.00
2023-05-21T13:07:31.144Z,3.78
2023-05-21T13:09:58.400Z,6.10
2023-05-21T13:12:26.803Z,3.60
2023-05-21T13:14:54.559Z,5.97
2023-05-21T13:17:21.825Z,5.60
2023-05-21T13:20:21.866Z,3.53
2023-05-21T13:22:50.233Z,6.30
2023-05-21T13:25:19.545Z,3.08
2023-05-21T13:27:46.944Z,3.55
2023-05-21T13:30:14.104Z,6.53
2023-05-21T13:32:41.584Z,7.07
2023-05-21T13:35:09.952Z,5.20
2023-05-21T13:37:37.231Z,6.90
2023-05-21T13:40:04.924Z,6.57
2023-05-21T13:42:32.089Z,4.97
2023-05-21T13:44:59.270Z,4.03
2023-05-21T13:47:26.444Z,3.92
2023-05-21T13:49:53.616Z,6.20
2023-05-21T13:52:21.586Z,6.28
2023-05-21T13:54:48.788Z,8.25
2023-05-21T13:57:16.230Z,3.00
2023-05-21T13:59:43.406Z,4.65
2023-05-21T14:02:10.737Z,5.95
2023-05-21T14:04:39.426Z,3.88
2023-05-21T14:07:07.040Z,5.88
2023-05-21T14:09:34.261Z,7.57
2023-05-21T14:12:01.597Z,3.85
2023-05-21T14:14:28.769Z,4.68
2023-05-21T14:16:56.058Z,2.92
2023-05-21T14:19:23.437Z,5.72
2023-05-21T14:21:52.538Z,6.88
2023-05-21T14:24:19.991Z,5.93
2023-05-21T14:26:47.157Z,6.63
2023-05-21T14:29:15.114Z,3.88
2023-05-21T14:31:42.375Z,5.30
2023-05-21T14:34:09.628Z,4.05
2023-05-21T14:36:36.829Z,5.72
2023-05-21T14:39:04.152Z,4.45
2023-05-21T14:41:31.554Z,3.97
2023-05-21T14:43:58.700Z,9.32
2023-05-21T14:46:26.493Z,5.65
2023-05-21T14:48:55.437Z,4.10
2023-05-21T14:51:22.678Z,3.47
2023-05-21T14:53:49.815Z,4.43
2023-05-21T14:56:17.135Z,5.28
2023-05-21T14:58:44.319Z,3.55
2023-05-21T15:01:11.522Z,4.55
2023-05-21T15:03:38.925Z,3.83
2023-05-21T15:06:06.120Z,5.53
2023-05-21T15:08:33.273Z,5.45
2023-05-21T15:11:00.480Z,3.45
2023-05-21T15:13:27.686Z,5.07
2023-05-21T15:15:54.909Z,4.32
2023-05-21T15:18:22.473Z,4.15
2023-05-21T15:20:50.121Z,4.03
2023-05-21T15:23:18.071Z,5.00
2023-05-21T15:25:45.789Z,3.78
2023-05-21T15:28:13.196Z,2.97
2023-05-21T15:30:40.513Z,5.70
2023-05-21T15:33:07.757Z,4.78
2023-05-21T15:35:36.178Z,3.33
2023-05-21T15:38:03.943Z,4.53
2023-05-21T15:40:32.297Z,10.35
2023-05-21T15:43:04.502Z,4.28
2023-05-21T15:45:31.649Z,3.25
2023-05-21T15:47:58.835Z,5.05
2023-05-21T15:50:25.986Z,4.05
2023-05-21T15:52:53.543Z,7.57
2023-05-21T15:55:21.161Z,4.18
2023-05-21T15:57:48.303Z,4.53
2023-05-21T16:00:15.740Z,3.03
2023-05-21T16:02:43.031Z,4.05
2023-05-21T16:05:10.521Z,6.05
2023-05-21T16:07:38.424Z,4.35
2023-05-21T16:10:06.120Z,6.43
2023-05-21T16:12:33.301Z,4.70
2023-05-21T16:15:00.646Z,6.75
2023-05-21T16:17:27.856Z,3.65
2023-05-21T16:19:55.028Z,2.75
2023-05-21T16:22:23.246Z,3.28
2023-05-21T16:24:50.641Z,6.22
2023-05-21T16:27:17.831Z,4.50
2023-05-21T16:29:45.213Z,8.52
2023-05-21T16:32:13.996Z,8.05
2023-05-21T16:34:41.444Z,4.47
2023-05-21T16:37:09.679Z,6.95
2023-05-21T16:39:37.079Z,7.68
2023-05-21T16:42:04.385Z,4.65
2023-05-21T16:44:32.209Z,7.40
2023-05-21T16:47:00.308Z,6.32
2023-05-21T16:49:27.940Z,3.58
2023-05-21T16:51:55.290Z,5.30
2023-05-21T16:54:22.642Z,5.43
2023-05-21T16:56:49.917Z,5.47
2023-05-21T16:59:17.117Z,5.95
2023-05-21T17:01:44.381Z,3.35
2023-05-21T17:04:11.765Z,4.88
2023-05-21T17:06:38.915Z,5.38
2023-05-21T17:09:06.784Z,4.78
2023-05-21T17:11:34.999Z,4.70
2023-05-21T17:14:02.198Z,3.85
2023-05-21T17:16:29.476Z,5.53
2023-05-21T17:18:56.781Z,3.60
2023-05-21T17:21:23.931Z,3.25
2023-05-21T17:23:51.129Z,3.17
2023-05-21T17:26:18.273Z,3.88
2023-05-21T17:28:45.412Z,4.38
2023-05-21T17:31:12.592Z,2.80
2023-05-21T17:33:39.779Z,7.13
2023-05-21T17:36:07.026Z,2.83
2023-05-21T17:38:34.205Z,7.07
2023-05-21T17:41:01.366Z,3.63
2023-05-21T17:43:28.552Z,3.15
2023-05-21T17:45:55.844Z,4.80
2023-05-21T17:48:23.162Z,5.85
2023-05-21T17:50:51.005Z,3.35
2023-05-21T17:53:18.315Z,8.27
2023-05-21T17:55:45.628Z,8.82
2023-05-21T17:58:12.822Z,3.83
2023-05-21T18:00:40.070Z,3.17
2023-05-21T18:03:07.325Z,7.35
2023-05-21T18:05:34.721Z,5.25
2023-05-21T18:08:02.757Z,7.25
2023-05-21T18:10:30.264Z,5.40
2023-05-21T18:12:57.477Z,7.13
2023-05-21T18:15:24.661Z,7.78
2023-05-21T18:17:51.849Z,8.05
2023-05-21T18:20:18.995Z,5.88
2023-05-21T18:22:46.206Z,6.07
2023-05-21T18:25:13.370Z,3.95
2023-05-21T18:27:40.684Z,4.72
2023-05-21T18:30:08.590Z,7.18
2023-05-21T18:32:38.972Z,4.68
2023-05-21T18:35:07.177Z,11.10
2023-05-21T18:37:34.407Z,9.27
2023-05-21T18:40:01.653Z,4.68
2023-05-21T18:42:28.879Z,12.70
2023-05-21T18:44:56.187Z,11.52
2023-05-21T18:47:23.363Z,9.50
2023-05-21T18:49:50.684Z,13.23
2023-05-21T18:52:17.902Z,11.43
2023-05-21T18:54:45.159Z,11.38
2023-05-21T18:57:13.589Z,12.23
2023-05-21T18:59:41.056Z,14.23
2023-05-21T19:02:08.360Z,12.30
2023-05-21T19:04:35.730Z,11.85
2023-05-21T19:07:03.878Z,12.00
2023-05-21T19:09:31.165Z,13.63
2023-05-21T19:12:00.454Z,11.75
2023-05-21T19:14:27.686Z,11.70
2023-05-21T19:16:54.863Z,8.27
2023-05-21T19:19:22.094Z,17.92
2023-05-21T19:21:49.322Z,11.95
2023-05-21T19:24:16.568Z,13.43
2023-05-21T19:26:43.723Z,9.40
2023-05-21T19:29:11.027Z,8.90
2023-05-21T19:31:39.158Z,7.25
2023-05-21T19:34:10.484Z,7.25
2023-05-21T19:36:51.669Z,9.60
2023-05-21T19:39:19.865Z,10.55
2023-05-21T19:41:47.066Z,10.80
2023-05-21T19:44:14.276Z,11.68
2023-05-21T19:46:41.542Z,10.82
2023-05-21T19:49:10.946Z,11.20
2023-05-21T19:51:38.114Z,8.48
2023-05-21T19:54:05.388Z,10.32
2023-05-21T19:56:32.542Z,10.07
2023-05-21T19:58:59.676Z,9.77
2023-05-21T20:01:29.097Z,10.15
2023-05-21T20:03:56.662Z,8.57
2023-05-21T20:06:23.938Z,9.30
2023-05-21T20:08:51.768Z,7.93
2023-05-21T20:11:19.289Z,8.85
2023-05-21T20:13:50.204Z,8.57
2023-05-21T20:16:21.412Z,7.07
2023-05-21T20:18:48.904Z,7.30
2023-05-21T20:21:20.177Z,11.07
2023-05-21T20:23:47.575Z,8.20
2023-05-21T20:26:14.965Z,10.20
2023-05-21T20:28:42.372Z,8.55
2023-05-21T20:31:09.626Z,8.70
2023-05-21T20:33:42.670Z,9.20
2023-05-21T20:36:10.097Z,9.82
2023-05-21T20:38:38.225Z,7.78
2023-05-21T20:41:05.498Z,7.10
2023-05-21T20:43:33.042Z,9.57
2023-05-21T20:46:00.299Z,7.93
2023-05-21T20:48:31.958Z,9.65
2023-05-21T20:51:04.414Z,9.80
2023-05-21T20:53:32.003Z,8.52
2023-05-21T20:56:01.366Z,9.55
2023-05-21T20:58:28.813Z,10.93
2023-05-21T21:00:56.003Z,11.77
2023-05-21T21:03:23.418Z,10.57
2023-05-21T21:05:51.037Z,9.02
2023-05-21T21:08:18.252Z,7.43
2023-05-21T21:10:47.023Z,7.85
2023-05-21T21:13:14.703Z,7.60
2023-05-21T21:15:43.920Z,8.35
2023-05-21T21:18:12.547Z,9.25
2023-05-21T21:20:41.347Z,11.80
2023-05-21T21:23:08.838Z,10.13
2023-05-21T21:25:36.136Z,10.48
2023-05-21T21:28:03.341Z,9.95
2023-05-21T21:30:31.112Z,9.50
2023-05-21T21:32:58.406Z,7.72
2023-05-21T21:35:25.673Z,7.60
2023-05-21T21:37:52.850Z,11.43
2023-05-21T21:40:19.997Z,7.80
2023-05-21T21:42:47.214Z,7.43
2023-05-21T21:45:14.357Z,9.68
2023-05-21T21:47:41.550Z,8.35
2023-05-21T21:50:08.962Z,7.90
2023-05-21T21:52:39.893Z,7.35
2023-05-21T21:55:08.902Z,8.82
2023-05-21T21:57:36.441Z,6.22
2023-05-21T22:00:11.161Z,8.00
2023-05-21T22:02:40.146Z,9.88
2023-05-21T22:05:08.667Z,8.77
2023-05-21T22:07:38.888Z,11.30
2023-05-21T22:10:06.646Z,11.50
2023-05-21T22:12:34.180Z,15.20
2023-05-21T22:15:05.108Z,9.10
2023-05-21T22:17:32.823Z,10.75
2023-05-21T22:20:00.456Z,13.18
2023-05-21T22:22:27.718Z,13.73
2023-05-21T22:24:54.935Z,18.83
2023-05-21T22:27:22.089Z,13.30
2023-05-21T22:29:49.291Z,15.30
2023-05-21T22:32:16.576Z,16.08
2023-05-21T22:34:43.783Z,17.42
2023-05-21T22:37:11.110Z,16.40
2023-05-21T22:39:38.362Z,13.68
2023-05-21T22:42:05.687Z,13.18
2023-05-21T22:44:33.637Z,17.55
2023-05-21T22:47:01.143Z,15.48
2023-05-21T22:49:28.465Z,15.48
2023-05-21T22:51:56.452Z,14.40
2023-05-21T22:54:23.643Z,12.82
2023-05-21T22:56:50.960Z,14.15
2023-05-21T22:59:18.158Z,12.57
2023-05-21T23:01:45.370Z,13.80
2023-05-21T23:04:13.104Z,12.20
2023-05-21T23:06:40.261Z,14.02
2023-05-21T23:09:07.502Z,11.95
2023-05-21T23:11:34.653Z,14.93
2023-05-21T23:14:01.954Z,15.52
2023-05-21T23:16:30.852Z,11.07
2023-05-21T23:18:58.104Z,13.90
2023-05-21T23:21:25.479Z,14.63
2023-05-21T23:23:52.648Z,9.38
2023-05-21T23:26:19.872Z,9.65
2023-05-21T23:28:47.091Z,10.68
2023-05-21T23:31:14.289Z,13.30
2023-05-21T23:33:41.452Z,9.57
2023-05-21T23:36:08.898Z,10.27
2023-05-21T23:38:36.376Z,13.15
2023-05-21T23:41:03.530Z,10.43
2023-05-21T23:43:30.730Z,10.88
2023-05-21T23:45:57.940Z,9.20
2023-05-21T23:48:25.155Z,9.05
2023-05-21T23:50:52.456Z,9.82
2023-05-21T23:53:19.604Z,8.85
2023-05-21T23:55:46.764Z,10.48
2023-05-21T23:58:13.909Z,9.73
